Time,TemperatureF,DewpointF,PressureIn,WindDirection,WindDirectionDegrees,WindSpeedMPH,WindSpeedGustMPH,Humidity,HourlyPrecipIn,Conditions,Clouds,dailyrainin,SoftwareType,DateUTC
2013-02-20 00:01:00,24.0,20.0,29.94,SE,133,4.0,13.0,86,0.00,,,0.00,weatherlink.com 1.10,2013-02-20 05:01:00,
2013-02-20 00:19:00,24.7,18.0,29.94,SE,124,13.0,18.0,75,0.00,,,0.00,weatherlink.com 1.10,2013-02-20 05:19:00,
2013-02-20 00:39:00,24.6,17.0,29.94,SE,140,2.0,14.0,74,0.00,,,0.00,weatherlink.com 1.10,2013-02-20 05:39:00,
2013-02-20 00:57:00,24.1,18.0,29.94,ESE,116,9.0,19.0,77,0.00,,,0.00,weatherlink.com 1.10,2013-02-20 05:57:00,
2013-02-20 01:15:00,22.9,19.0,29.95,SE,136,4.0,16.0,86,0.00,,,0.00,weatherlink.com 1.10,2013-02-20 06:15:00,
2013-02-20 01:35:00,22.1,20.0,29.95,NNE,30,6.0,10.0,90,0.00,,,0.00,weatherlink.com 1.10,2013-02-20 06:35:00,
2013-02-20 01:53:00,21.6,19.0,29.96,ESE,117,3.0,15.0,90,0.00,,,0.00,weatherlink.com 1.10,2013-02-20 06:53:00,
2013-02-20 02:13:00,21.2,19.0,29.96,ESE,120,4.0,11.0,91,0.00,,,0.00,weatherlink.com 1.10,2013-02-20 07:13:00,
2013-02-20 02:31:00,20.7,19.0,29.97,ESE,103,4.0,13.0,91,0.00,,,0.00,weatherlink.com 1.10,2013-02-20 07:31:00,
2013-02-20 02:49:00,20.8,18.0,29.96,ESE,120,5.0,13.0,90,0.00,,,0.00,weatherlink.com 1.10,2013-02-20 07:49:00,
2013-02-20 03:07:00,21.0,18.0,29.96,ESE,115,5.0,14.0,87,0.00,,,0.00,weatherlink.com 1.10,2013-02-20 08:07:00,
2013-02-20 03:25:00,20.0,18.0,29.97,East,98,11.0,22.0,91,0.00,,,0.00,weatherlink.com 1.10,2013-02-20 08:25:00,
2013-02-20 03:45:00,20.0,18.0,29.98,East,88,4.0,15.0,90,0.00,,,0.00,weatherlink.com 1.10,2013-02-20 08:45:00,
2013-02-20 04:03:00,20.1,16.0,29.99,ESE,107,2.0,18.0,83,0.00,,,0.00,weatherlink.com 1.10,2013-02-20 09:03:00,
2013-02-20 04:21:00,19.6,14.0,30.00,NNE,29,5.0,26.0,79,0.00,,,0.00,weatherlink.com 1.10,2013-02-20 09:21:00,
2013-02-20 04:41:00,19.4,13.0,30.02,SSE,155,4.0,19.0,76,0.00,,,0.00,weatherlink.com 1.10,2013-02-20 09:41:00,
2013-02-20 04:59:00,19.0,12.0,30.02,SE,124,6.0,16.0,74,0.00,,,0.00,weatherlink.com 1.10,2013-02-20 09:59:00,
2013-02-20 05:17:00,18.9,12.0,30.03,East,92,8.0,22.0,74,0.00,,,0.00,weatherlink.com 1.10,2013-02-20 10:17:00,
2013-02-20 05:35:00,18.9,12.0,30.04,ESE,121,11.0,14.0,74,0.00,,,0.00,weatherlink.com 1.10,2013-02-20 10:35:00,
2013-02-20 05:55:00,19.0,12.0,30.04,ESE,117,1.0,14.0,75,0.00,,,0.00,weatherlink.com 1.10,2013-02-20 10:55:00,
2013-02-20 06:13:00,18.9,12.0,30.04,SE,127,2.0,12.0,75,0.00,,,0.00,weatherlink.com 1.10,2013-02-20 11:13:00,
2013-02-20 06:31:00,18.7,12.0,30.04,SE,136,3.0,13.0,76,0.00,,,0.00,weatherlink.com 1.10,2013-02-20 11:31:00,
2013-02-20 06:51:00,18.5,13.0,30.05,SE,140,10.0,14.0,79,0.00,,,0.00,weatherlink.com 1.10,2013-02-20 11:51:00,
2013-02-20 07:09:00,18.8,12.0,30.06,ESE,116,5.0,19.0,75,0.00,,,0.00,weatherlink.com 1.10,2013-02-20 12:09:00,
2013-02-20 07:27:00,18.6,12.0,30.07,SSE,148,7.0,25.0,74,0.00,,,0.00,weatherlink.com 1.10,2013-02-20 12:27:00,
2013-02-20 07:47:00,18.4,11.0,30.07,ESE,122,10.0,17.0,74,0.00,,,0.00,weatherlink.com 1.10,2013-02-20 12:47:00,
2013-02-20 08:05:00,18.4,12.0,30.08,NE,43,5.0,20.0,76,0.00,,,0.00,weatherlink.com 1.10,2013-02-20 13:05:00,
2013-02-20 08:23:00,18.3,13.0,30.09,East,99,4.0,15.0,79,0.00,,,0.00,weatherlink.com 1.10,2013-02-20 13:23:00,
2013-02-20 08:41:00,18.5,12.0,30.09,ESE,117,8.0,13.0,77,0.00,,,0.00,weatherlink.com 1.10,2013-02-20 13:41:00,
2013-02-20 09:01:00,18.3,13.0,30.09,ESE,116,9.0,11.0,79,0.00,,,0.00,weatherlink.com 1.10,2013-02-20 14:01:00,
2013-02-20 09:19:00,18.2,14.0,30.10,SE,139,7.0,9.0,84,0.00,,,0.00,weatherlink.com 1.10,2013-02-20 14:19:00,
2013-02-20 09:37:00,17.8,14.0,30.09,East,84,7.0,16.0,86,0.00,,,0.00,weatherlink.com 1.10,2013-02-20 14:37:00,
2013-02-20 09:57:00,18.8,15.0,30.09,East,100,13.0,19.0,85,0.00,,,0.00,weatherlink.com 1.10,2013-02-20 14:57:00,
2013-02-20 10:15:00,19.2,14.0,30.10,ESE,114,8.0,13.0,80,0.00,,,0.00,weatherlink.com 1.10,2013-02-20 15:15:00,
2013-02-20 10:33:00,19.3,13.0,30.11,SE,136,12.0,14.0,77,0.00,,,0.00,weatherlink.com 1.10,2013-02-20 15:33:00,
2013-02-20 10:53:00,19.7,12.0,30.11,ESE,118,6.0,17.0,71,0.00,,,0.00,weatherlink.com 1.10,2013-02-20 15:53:00,
2013-02-20 11:11:00,20.5,15.0,30.11,ESE,119,9.0,13.0,80,0.00,,,0.00,weatherlink.com 1.10,2013-02-20 16:11:00,
2013-02-20 11:29:00,19.5,15.0,30.11,ESE,118,5.0,15.0,83,0.00,,,0.00,weatherlink.com 1.10,2013-02-20 16:29:00,
2013-02-20 11:47:00,19.2,16.0,30.11,ESE,120,4.0,11.0,88,0.00,,,0.00,weatherlink.com 1.10,2013-02-20 16:47:00,
2013-02-20 12:07:00,20.8,12.0,30.11,ESE,113,14.0,21.0,70,0.00,,,0.00,weatherlink.com 1.10,2013-02-20 17:07:00,
2013-02-20 12:25:00,20.9,12.0,30.12,SE,139,8.0,19.0,68,0.00,,,0.00,weatherlink.com 1.10,2013-02-20 17:25:00,
2013-02-20 12:43:00,21.1,10.0,30.11,ESE,118,23.0,28.0,63,0.00,,,0.00,weatherlink.com 1.10,2013-02-20 17:43:00,
2013-02-20 13:03:00,21.3,12.0,30.12,ESE,110,5.0,16.0,66,0.00,,,0.00,weatherlink.com 1.10,2013-02-20 18:03:00,
2013-02-20 13:21:00,21.3,12.0,30.12,SE,133,9.0,16.0,67,0.00,,,0.00,weatherlink.com 1.10,2013-02-20 18:21:00,
2013-02-20 13:39:00,21.6,11.0,30.12,SE,138,5.0,21.0,64,0.00,,,0.00,weatherlink.com 1.10,2013-02-20 18:39:00,
2013-02-20 13:58:00,21.5,12.0,30.13,SE,131,4.0,17.0,66,0.00,,,0.00,weatherlink.com 1.10,2013-02-20 18:58:00,
2013-02-20 14:16:00,21.5,10.0,30.14,SE,131,4.0,19.0,62,0.00,,,0.00,weatherlink.com 1.10,2013-02-20 19:16:00,
2013-02-20 14:36:00,20.9,12.0,30.14,SE,136,1.0,21.0,68,0.00,,,0.00,weatherlink.com 1.10,2013-02-20 19:36:00,
2013-02-20 14:54:00,22.0,11.0,30.15,East,96,8.0,15.0,64,0.00,,,0.00,weatherlink.com 1.10,2013-02-20 19:54:00,
2013-02-20 15:12:00,21.4,12.0,30.16,ESE,109,6.0,19.0,68,0.00,,,0.00,weatherlink.com 1.10,2013-02-20 20:12:00,
2013-02-20 15:32:00,21.2,11.0,30.16,SE,141,5.0,16.0,66,0.00,,,0.00,weatherlink.com 1.10,2013-02-20 20:32:00,
2013-02-20 15:50:00,20.2,14.0,30.17,ESE,120,6.0,13.0,77,0.00,,,0.00,weatherlink.com 1.10,2013-02-20 20:50:00,
2013-02-20 16:08:00,20.7,12.0,30.18,ESE,113,12.0,23.0,69,0.00,,,0.00,weatherlink.com 1.10,2013-02-20 21:08:00,
2013-02-20 16:28:00,20.6,14.0,30.19,SE,132,9.0,14.0,74,0.00,,,0.00,weatherlink.com 1.10,2013-02-20 21:28:00,
2013-02-20 16:44:00,20.5,13.0,30.20,East,96,6.0,13.0,74,0.00,,,0.00,weatherlink.com 1.10,2013-02-20 21:44:00,
2013-02-20 17:02:00,20.5,14.0,30.21,ESE,120,5.0,15.0,76,0.00,,,0.00,weatherlink.com 1.10,2013-02-20 22:02:00,
2013-02-20 17:22:00,20.1,14.0,30.22,East,79,5.0,12.0,76,0.00,,,0.00,weatherlink.com 1.10,2013-02-20 22:22:00,
2013-02-20 17:40:00,20.2,14.0,30.22,SE,133,0.0,11.0,76,0.00,,,0.00,weatherlink.com 1.10,2013-02-20 22:40:00,
2013-02-20 17:58:00,19.9,15.0,30.23,East,98,7.0,10.0,80,0.00,,,0.00,weatherlink.com 1.10,2013-02-20 22:58:00,
2013-02-20 18:18:00,19.7,15.0,30.23,ESE,108,4.0,7.0,80,0.00,,,0.00,weatherlink.com 1.10,2013-02-20 23:18:00,
2013-02-20 18:36:00,19.7,15.0,30.24,SE,129,5.0,14.0,81,0.00,,,0.00,weatherlink.com 1.10,2013-02-20 23:36:00,
2013-02-20 18:54:00,19.2,15.0,30.24,ESE,110,2.0,10.0,85,0.00,,,0.00,weatherlink.com 1.10,2013-02-20 23:54:00,
2013-02-20 19:12:00,19.1,16.0,30.24,ESE,112,4.0,9.0,86,0.00,,,0.00,weatherlink.com 1.10,2013-02-21 00:12:00,
2013-02-20 19:32:00,18.5,16.0,30.24,ESE,120,2.0,7.0,90,0.00,,,0.00,weatherlink.com 1.10,2013-02-21 00:32:00,
2013-02-20 19:50:00,18.9,15.0,30.24,ESE,115,7.0,11.0,86,0.00,,,0.00,weatherlink.com 1.10,2013-02-21 00:50:00,
2013-02-20 20:08:00,18.5,16.0,30.24,East,91,1.0,5.0,90,0.00,,,0.00,weatherlink.com 1.10,2013-02-21 01:08:00,
2013-02-20 20:28:00,18.9,15.0,30.24,SE,127,4.0,12.0,85,0.00,,,0.00,weatherlink.com 1.10,2013-02-21 01:28:00,
2013-02-20 20:46:00,19.1,15.0,30.25,ESE,117,2.0,10.0,84,0.00,,,0.00,weatherlink.com 1.10,2013-02-21 01:46:00,
2013-02-20 21:04:00,19.3,15.0,30.25,ESE,122,5.0,9.0,82,0.00,,,0.00,weatherlink.com 1.10,2013-02-21 02:04:00,
2013-02-20 21:24:00,18.9,15.0,30.25,ENE,68,2.0,9.0,84,0.00,,,0.00,weatherlink.com 1.10,2013-02-21 02:24:00,
2013-02-20 21:42:00,18.9,15.0,30.26,ESE,108,5.0,11.0,84,0.00,,,0.00,weatherlink.com 1.10,2013-02-21 02:42:00,
2013-02-20 22:00:00,18.6,15.0,30.26,East,82,3.0,10.0,86,0.00,,,0.00,weatherlink.com 1.10,2013-02-21 03:00:00,
2013-02-20 22:18:00,18.2,16.0,30.26,ESE,111,2.0,6.0,89,0.00,,,0.00,weatherlink.com 1.10,2013-02-21 03:18:00,
2013-02-20 22:38:00,18.3,16.0,30.26,ESE,113,2.0,5.0,90,0.00,,,0.00,weatherlink.com 1.10,2013-02-21 03:38:00,
2013-02-20 22:56:00,18.4,16.0,30.26,East,94,2.0,5.0,89,0.00,,,0.00,weatherlink.com 1.10,2013-02-21 03:56:00,
2013-02-20 23:14:00,18.5,16.0,30.25,ESE,109,3.0,9.0,88,0.00,,,0.00,weatherlink.com 1.10,2013-02-21 04:14:00,
2013-02-20 23:34:00,18.5,15.0,30.24,NE,46,4.0,6.0,87,0.00,,,0.00,weatherlink.com 1.10,2013-02-21 04:34:00,
2013-02-20 23:52:00,18.4,15.0,30.24,ESE,121,4.0,9.0,85,0.00,,,0.00,weatherlink.com 1.10,2013-02-21 04:52:00,